sensor_id;sensor_type;location;lat;lon;timestamp;temperature;humidity
41939;DHT22;23057;48.554;14.454;2023-01-31T00:00:52;0.70;99.90
41939;DHT22;23057;48.554;14.454;2023-01-31T00:03:23;0.70;99.90
41939;DHT22;23057;48.554;14.454;2023-01-31T00:05:54;0.70;99.90
41939;DHT22;23057;48.554;14.454;2023-01-31T00:08:25;0.70;99.90
41939;DHT22;23057;48.554;14.454;2023-01-31T00:10:57;0.70;99.90
41939;DHT22;23057;48.554;14.454;2023-01-31T00:13:28;0.60;99.90
41939;DHT22;23057;48.554;14.454;2023-01-31T00:15:59;0.60;99.90
41939;DHT22;23057;48.554;14.454;2023-01-31T00:18:30;0.60;99.90
41939;DHT22;23057;48.554;14.454;2023-01-31T00:21:12;0.60;99.90
41939;DHT22;23057;48.554;14.454;2023-01-31T00:23:46;0.60;99.90
41939;DHT22;23057;48.554;14.454;2023-01-31T00:26:20;0.50;99.90
41939;DHT22;23057;48.554;14.454;2023-01-31T00:29:00;0.50;99.90
41939;DHT22;23057;48.554;14.454;2023-01-31T00:31:33;0.50;99.90
41939;DHT22;23057;48.554;14.454;2023-01-31T00:34:04;0.50;99.90
41939;DHT22;23057;48.554;14.454;2023-01-31T00:36:36;0.50;99.90
41939;DHT22;23057;48.554;14.454;2023-01-31T00:39:07;0.60;99.90
41939;DHT22;23057;48.554;14.454;2023-01-31T00:41:38;0.60;99.90
41939;DHT22;23057;48.554;14.454;2023-01-31T00:44:09;0.60;99.90
41939;DHT22;23057;48.554;14.454;2023-01-31T00:46:40;0.50;99.90
41939;DHT22;23057;48.554;14.454;2023-01-31T00:49:11;0.60;99.90
41939;DHT22;23057;48.554;14.454;2023-01-31T00:51:42;0.60;99.90
41939;DHT22;23057;48.554;14.454;2023-01-31T00:54:13;0.60;99.90
41939;DHT22;23057;48.554;14.454;2023-01-31T00:56:44;0.50;99.90
41939;DHT22;23057;48.554;14.454;2023-01-31T00:59:15;0.50;99.90
41939;DHT22;23057;48.554;14.454;2023-01-31T01:01:46;0.60;99.90
41939;DHT22;23057;48.554;14.454;2023-01-31T01:04:17;0.60;99.90
41939;DHT22;23057;48.554;14.454;2023-01-31T01:06:47;0.60;99.90
41939;DHT22;23057;48.554;14.454;2023-01-31T01:09:19;0.60;99.90
41939;DHT22;23057;48.554;14.454;2023-01-31T01:11:52;0.60;99.90
41939;DHT22;23057;48.554;14.454;2023-01-31T01:14:22;0.70;99.90
41939;DHT22;23057;48.554;14.454;2023-01-31T01:16:53;0.70;99.90
41939;DHT22;23057;48.554;14.454;2023-01-31T01:19:27;0.70;99.90
41939;DHT22;23057;48.554;14.454;2023-01-31T01:21:58;0.60;99.90
41939;DHT22;23057;48.554;14.454;2023-01-31T01:24:28;0.70;99.90
41939;DHT22;23057;48.554;14.454;2023-01-31T01:27:02;0.70;99.90
41939;DHT22;23057;48.554;14.454;2023-01-31T01:29:33;0.60;99.90
41939;DHT22;23057;48.554;14.454;2023-01-31T01:32:04;0.60;99.90
41939;DHT22;23057;48.554;14.454;2023-01-31T01:34:36;0.60;99.90
41939;DHT22;23057;48.554;14.454;2023-01-31T01:37:07;0.60;99.90
41939;DHT22;23057;48.554;14.454;2023-01-31T01:39:49;0.50;99.90
41939;DHT22;23057;48.554;14.454;2023-01-31T01:42:22;0.50;99.90
41939;DHT22;23057;48.554;14.454;2023-01-31T01:44:58;0.60;99.90
41939;DHT22;23057;48.554;14.454;2023-01-31T01:53:20;0.50;99.90
41939;DHT22;23057;48.554;14.454;2023-01-31T01:55:57;0.60;99.90
41939;DHT22;23057;48.554;14.454;2023-01-31T01:58:38;0.60;99.90
41939;DHT22;23057;48.554;14.454;2023-01-31T02:01:13;0.70;99.90
41939;DHT22;23057;48.554;14.454;2023-01-31T02:03:46;0.70;99.90
41939;DHT22;23057;48.554;14.454;2023-01-31T02:06:20;0.60;99.90
41939;DHT22;23057;48.554;14.454;2023-01-31T02:08:51;0.50;99.90
41939;DHT22;23057;48.554;14.454;2023-01-31T02:11:25;0.50;99.90
41939;DHT22;23057;48.554;14.454;2023-01-31T02:14:00;0.50;99.90
41939;DHT22;23057;48.554;14.454;2023-01-31T02:16:34;0.40;99.90
41939;DHT22;23057;48.554;14.454;2023-01-31T02:19:09;0.50;99.90
41939;DHT22;23057;48.554;14.454;2023-01-31T02:22:09;0.40;99.90
41939;DHT22;23057;48.554;14.454;2023-01-31T02:25:16;0.40;99.90
41939;DHT22;23057;48.554;14.454;2023-01-31T02:28:25;0.50;99.90
41939;DHT22;23057;48.554;14.454;2023-01-31T02:34:12;0.50;99.90
41939;DHT22;23057;48.554;14.454;2023-01-31T02:48:42;0.60;99.90
41939;DHT22;23057;48.554;14.454;2023-01-31T02:51:36;0.50;99.90
41939;DHT22;23057;48.554;14.454;2023-01-31T02:54:34;0.50;99.90
41939;DHT22;23057;48.554;14.454;2023-01-31T02:57:26;0.60;99.90
41939;DHT22;23057;48.554;14.454;2023-01-31T02:59:57;0.60;99.90
41939;DHT22;23057;48.554;14.454;2023-01-31T03:02:28;0.60;99.90
41939;DHT22;23057;48.554;14.454;2023-01-31T03:04:59;0.60;99.90
41939;DHT22;23057;48.554;14.454;2023-01-31T03:07:30;0.50;99.90
41939;DHT22;23057;48.554;14.454;2023-01-31T03:13:29;0.60;99.90
41939;DHT22;23057;48.554;14.454;2023-01-31T03:16:26;0.70;99.90
41939;DHT22;23057;48.554;14.454;2023-01-31T03:19:37;0.70;99.90
41939;DHT22;23057;48.554;14.454;2023-01-31T03:22:24;0.70;99.90
41939;DHT22;23057;48.554;14.454;2023-01-31T03:25:01;0.70;99.90
41939;DHT22;23057;48.554;14.454;2023-01-31T03:27:36;0.70;99.90
41939;DHT22;23057;48.554;14.454;2023-01-31T03:30:14;0.60;99.90
41939;DHT22;23057;48.554;14.454;2023-01-31T03:32:52;0.60;99.90
41939;DHT22;23057;48.554;14.454;2023-01-31T03:35:31;0.70;99.90
41939;DHT22;23057;48.554;14.454;2023-01-31T03:38:10;0.60;99.90
41939;DHT22;23057;48.554;14.454;2023-01-31T03:40:54;0.60;99.90
41939;DHT22;23057;48.554;14.454;2023-01-31T03:46:23;0.70;99.90
41939;DHT22;23057;48.554;14.454;2023-01-31T03:49:04;0.60;99.90
41939;DHT22;23057;48.554;14.454;2023-01-31T03:51:42;0.60;99.90
41939;DHT22;23057;48.554;14.454;2023-01-31T03:54:24;0.60;99.90
41939;DHT22;23057;48.554;14.454;2023-01-31T03:57:05;0.60;99.90
41939;DHT22;23057;48.554;14.454;2023-01-31T03:59:54;0.60;99.90
41939;DHT22;23057;48.554;14.454;2023-01-31T04:02:32;0.60;99.90
41939;DHT22;23057;48.554;14.454;2023-01-31T04:05:10;0.60;99.90
41939;DHT22;23057;48.554;14.454;2023-01-31T04:07:47;0.70;99.90
41939;DHT22;23057;48.554;14.454;2023-01-31T04:10:18;0.70;99.90
41939;DHT22;23057;48.554;14.454;2023-01-31T04:12:49;0.70;99.90
41939;DHT22;23057;48.554;14.454;2023-01-31T04:15:20;0.60;99.90
41939;DHT22;23057;48.554;14.454;2023-01-31T04:17:51;0.60;99.90
41939;DHT22;23057;48.554;14.454;2023-01-31T04:20:21;0.60;99.90
41939;DHT22;23057;48.554;14.454;2023-01-31T04:22:52;0.70;99.90
41939;DHT22;23057;48.554;14.454;2023-01-31T04:25:23;0.60;99.90
41939;DHT22;23057;48.554;14.454;2023-01-31T04:27:54;0.70;99.90
41939;DHT22;23057;48.554;14.454;2023-01-31T04:30:25;0.70;99.90
41939;DHT22;23057;48.554;14.454;2023-01-31T04:32:56;0.60;99.90
41939;DHT22;23057;48.554;14.454;2023-01-31T04:35:26;0.60;99.90
41939;DHT22;23057;48.554;14.454;2023-01-31T04:37:57;0.60;99.90
41939;DHT22;23057;48.554;14.454;2023-01-31T04:40:28;0.60;99.90
41939;DHT22;23057;48.554;14.454;2023-01-31T04:42:59;0.60;99.90
41939;DHT22;23057;48.554;14.454;2023-01-31T04:45:29;0.50;99.90
41939;DHT22;23057;48.554;14.454;2023-01-31T04:48:00;0.50;99.90
41939;DHT22;23057;48.554;14.454;2023-01-31T04:50:31;0.60;99.90
41939;DHT22;23057;48.554;14.454;2023-01-31T04:53:02;0.50;99.90
41939;DHT22;23057;48.554;14.454;2023-01-31T04:55:34;0.50;99.90
41939;DHT22;23057;48.554;14.454;2023-01-31T04:58:06;0.50;99.90
41939;DHT22;23057;48.554;14.454;2023-01-31T05:00:37;0.50;99.90
41939;DHT22;23057;48.554;14.454;2023-01-31T05:03:07;0.50;99.90
41939;DHT22;23057;48.554;14.454;2023-01-31T05:05:38;0.50;99.90
41939;DHT22;23057;48.554;14.454;2023-01-31T05:08:09;0.60;99.90
41939;DHT22;23057;48.554;14.454;2023-01-31T05:10:40;0.60;99.90
41939;DHT22;23057;48.554;14.454;2023-01-31T05:13:12;0.60;99.90
41939;DHT22;23057;48.554;14.454;2023-01-31T05:15:46;0.60;99.90
41939;DHT22;23057;48.554;14.454;2023-01-31T05:18:18;0.60;99.90
41939;DHT22;23057;48.554;14.454;2023-01-31T05:20:49;0.60;99.90
41939;DHT22;23057;48.554;14.454;2023-01-31T05:23:20;0.50;99.90
41939;DHT22;23057;48.554;14.454;2023-01-31T05:25:51;0.50;99.90
41939;DHT22;23057;48.554;14.454;2023-01-31T05:28:22;0.50;99.90
41939;DHT22;23057;48.554;14.454;2023-01-31T05:31:00;0.50;99.90
41939;DHT22;23057;48.554;14.454;2023-01-31T05:33:33;0.50;99.90
41939;DHT22;23057;48.554;14.454;2023-01-31T05:36:04;0.50;99.90
41939;DHT22;23057;48.554;14.454;2023-01-31T05:38:36;0.60;99.90
41939;DHT22;23057;48.554;14.454;2023-01-31T05:41:06;0.50;99.90
41939;DHT22;23057;48.554;14.454;2023-01-31T05:43:37;0.50;99.90
41939;DHT22;23057;48.554;14.454;2023-01-31T05:46:08;0.50;99.90
41939;DHT22;23057;48.554;14.454;2023-01-31T05:48:38;0.50;99.90
41939;DHT22;23057;48.554;14.454;2023-01-31T05:51:09;0.50;99.90
41939;DHT22;23057;48.554;14.454;2023-01-31T05:53:40;0.50;99.90
41939;DHT22;23057;48.554;14.454;2023-01-31T05:56:10;0.50;99.90
41939;DHT22;23057;48.554;14.454;2023-01-31T05:58:43;0.50;99.90
41939;DHT22;23057;48.554;14.454;2023-01-31T06:01:21;0.50;99.90
41939;DHT22;23057;48.554;14.454;2023-01-31T06:03:56;0.50;99.90
41939;DHT22;23057;48.554;14.454;2023-01-31T06:06:27;0.50;99.90
41939;DHT22;23057;48.554;14.454;2023-01-31T06:08:58;0.40;99.90
41939;DHT22;23057;48.554;14.454;2023-01-31T06:11:28;0.40;99.90
41939;DHT22;23057;48.554;14.454;2023-01-31T06:13:59;0.40;99.90
41939;DHT22;23057;48.554;14.454;2023-01-31T06:16:30;0.40;99.90
41939;DHT22;23057;48.554;14.454;2023-01-31T06:19:01;0.40;99.90
41939;DHT22;23057;48.554;14.454;2023-01-31T06:21:32;0.40;99.90
41939;DHT22;23057;48.554;14.454;2023-01-31T06:24:02;0.40;99.90
41939;DHT22;23057;48.554;14.454;2023-01-31T06:26:34;0.40;99.90
41939;DHT22;23057;48.554;14.454;2023-01-31T06:29:04;0.40;99.90
41939;DHT22;23057;48.554;14.454;2023-01-31T06:31:35;0.40;99.90
41939;DHT22;23057;48.554;14.454;2023-01-31T06:34:06;0.40;99.90
41939;DHT22;23057;48.554;14.454;2023-01-31T06:36:36;0.40;99.90
41939;DHT22;23057;48.554;14.454;2023-01-31T06:39:08;0.40;99.90
41939;DHT22;23057;48.554;14.454;2023-01-31T06:41:41;0.40;99.90
41939;DHT22;23057;48.554;14.454;2023-01-31T06:44:12;0.40;99.90
41939;DHT22;23057;48.554;14.454;2023-01-31T06:46:43;0.40;99.90
41939;DHT22;23057;48.554;14.454;2023-01-31T06:49:13;0.40;99.90
41939;DHT22;23057;48.554;14.454;2023-01-31T06:51:44;0.30;99.90
41939;DHT22;23057;48.554;14.454;2023-01-31T06:54:15;0.30;99.90
41939;DHT22;23057;48.554;14.454;2023-01-31T06:56:46;0.30;99.90
41939;DHT22;23057;48.554;14.454;2023-01-31T06:59:16;0.30;99.90
41939;DHT22;23057;48.554;14.454;2023-01-31T07:01:47;0.30;99.90
41939;DHT22;23057;48.554;14.454;2023-01-31T07:04:18;0.30;99.90
41939;DHT22;23057;48.554;14.454;2023-01-31T07:06:49;0.30;99.90
41939;DHT22;23057;48.554;14.454;2023-01-31T07:09:19;0.40;99.90
41939;DHT22;23057;48.554;14.454;2023-01-31T07:11:51;0.40;99.90
41939;DHT22;23057;48.554;14.454;2023-01-31T07:14:22;0.40;99.90
41939;DHT22;23057;48.554;14.454;2023-01-31T07:16:52;0.40;99.90
41939;DHT22;23057;48.554;14.454;2023-01-31T07:19:23;0.40;99.90
41939;DHT22;23057;48.554;14.454;2023-01-31T07:21:54;0.40;99.90
41939;DHT22;23057;48.554;14.454;2023-01-31T07:24:25;0.40;99.90
41939;DHT22;23057;48.554;14.454;2023-01-31T07:26:55;0.40;99.90
41939;DHT22;23057;48.554;14.454;2023-01-31T07:29:26;0.40;99.90
41939;DHT22;23057;48.554;14.454;2023-01-31T07:31:57;0.40;99.90
41939;DHT22;23057;48.554;14.454;2023-01-31T07:34:27;0.40;99.90
41939;DHT22;23057;48.554;14.454;2023-01-31T07:36:58;0.40;99.90
41939;DHT22;23057;48.554;14.454;2023-01-31T07:39:30;0.50;99.90
41939;DHT22;23057;48.554;14.454;2023-01-31T07:42:01;0.50;99.90
41939;DHT22;23057;48.554;14.454;2023-01-31T07:44:31;0.40;99.90
41939;DHT22;23057;48.554;14.454;2023-01-31T07:47:02;0.50;99.90
41939;DHT22;23057;48.554;14.454;2023-01-31T07:49:33;0.40;99.90
41939;DHT22;23057;48.554;14.454;2023-01-31T07:52:04;0.50;99.90
41939;DHT22;23057;48.554;14.454;2023-01-31T07:54:34;0.40;99.90
41939;DHT22;23057;48.554;14.454;2023-01-31T07:57:05;0.40;99.90
41939;DHT22;23057;48.554;14.454;2023-01-31T07:59:36;0.40;99.90
41939;DHT22;23057;48.554;14.454;2023-01-31T08:02:08;0.40;99.90
41939;DHT22;23057;48.554;14.454;2023-01-31T08:05:01;0.40;99.90
41939;DHT22;23057;48.554;14.454;2023-01-31T08:07:32;0.40;99.90
41939;DHT22;23057;48.554;14.454;2023-01-31T08:10:03;0.40;99.90
41939;DHT22;23057;48.554;14.454;2023-01-31T08:12:34;0.50;99.90
41939;DHT22;23057;48.554;14.454;2023-01-31T08:15:05;0.50;99.90
41939;DHT22;23057;48.554;14.454;2023-01-31T08:17:37;0.50;99.90
41939;DHT22;23057;48.554;14.454;2023-01-31T08:20:07;0.50;99.90
41939;DHT22;23057;48.554;14.454;2023-01-31T08:22:39;0.50;99.90
41939;DHT22;23057;48.554;14.454;2023-01-31T08:25:09;0.50;99.90
41939;DHT22;23057;48.554;14.454;2023-01-31T08:27:40;0.50;99.90
41939;DHT22;23057;48.554;14.454;2023-01-31T08:30:11;0.50;99.90
41939;DHT22;23057;48.554;14.454;2023-01-31T08:32:42;0.50;99.90
41939;DHT22;23057;48.554;14.454;2023-01-31T08:35:13;0.60;99.90
41939;DHT22;23057;48.554;14.454;2023-01-31T08:37:44;0.60;99.90
41939;DHT22;23057;48.554;14.454;2023-01-31T08:40:15;0.60;99.90
41939;DHT22;23057;48.554;14.454;2023-01-31T08:42:53;0.50;99.90
41939;DHT22;23057;48.554;14.454;2023-01-31T08:45:28;0.60;99.90
41939;DHT22;23057;48.554;14.454;2023-01-31T08:48:00;0.60;99.90
41939;DHT22;23057;48.554;14.454;2023-01-31T08:50:31;0.60;99.90
41939;DHT22;23057;48.554;14.454;2023-01-31T08:53:02;0.60;99.90
41939;DHT22;23057;48.554;14.454;2023-01-31T08:55:35;0.60;99.90
41939;DHT22;23057;48.554;14.454;2023-01-31T08:58:06;0.60;99.90
41939;DHT22;23057;48.554;14.454;2023-01-31T09:00:37;0.60;99.90
41939;DHT22;23057;48.554;14.454;2023-01-31T09:03:12;0.70;99.90
41939;DHT22;23057;48.554;14.454;2023-01-31T09:05:46;0.80;99.90
41939;DHT22;23057;48.554;14.454;2023-01-31T09:08:17;0.80;99.90
41939;DHT22;23057;48.554;14.454;2023-01-31T09:10:50;0.80;99.90
41939;DHT22;23057;48.554;14.454;2023-01-31T09:13:23;0.80;99.90
41939;DHT22;23057;48.554;14.454;2023-01-31T09:16:00;0.80;99.90
41939;DHT22;23057;48.554;14.454;2023-01-31T09:18:36;0.90;99.90
41939;DHT22;23057;48.554;14.454;2023-01-31T09:21:13;0.80;99.90
41939;DHT22;23057;48.554;14.454;2023-01-31T09:23:47;0.90;99.90
41939;DHT22;23057;48.554;14.454;2023-01-31T09:26:24;0.90;99.90
41939;DHT22;23057;48.554;14.454;2023-01-31T09:28:56;0.90;99.90
41939;DHT22;23057;48.554;14.454;2023-01-31T09:31:28;0.80;99.90
41939;DHT22;23057;48.554;14.454;2023-01-31T09:33:59;0.80;99.90
41939;DHT22;23057;48.554;14.454;2023-01-31T09:36:30;0.70;99.90
41939;DHT22;23057;48.554;14.454;2023-01-31T09:39:00;0.80;99.90
41939;DHT22;23057;48.554;14.454;2023-01-31T09:50:03;1.60;99.90
41939;DHT22;23057;48.554;14.454;2023-01-31T09:52:49;1.40;99.90
41939;DHT22;23057;48.554;14.454;2023-01-31T09:55:28;1.40;99.90
41939;DHT22;23057;48.554;14.454;2023-01-31T09:58:22;1.40;99.90
41939;DHT22;23057;48.554;14.454;2023-01-31T10:01:24;1.40;99.90
41939;DHT22;23057;48.554;14.454;2023-01-31T10:04:07;1.50;99.90
41939;DHT22;23057;48.554;14.454;2023-01-31T10:10:22;1.40;99.90
41939;DHT22;23057;48.554;14.454;2023-01-31T10:13:10;1.50;99.90
41939;DHT22;23057;48.554;14.454;2023-01-31T10:15:55;1.30;99.90
41939;DHT22;23057;48.554;14.454;2023-01-31T10:18:36;1.30;99.90
41939;DHT22;23057;48.554;14.454;2023-01-31T10:21:15;1.40;99.90
41939;DHT22;23057;48.554;14.454;2023-01-31T10:23:55;1.60;99.90
41939;DHT22;23057;48.554;14.454;2023-01-31T10:26:33;1.60;99.90
41939;DHT22;23057;48.554;14.454;2023-01-31T10:29:23;1.60;99.90
41939;DHT22;23057;48.554;14.454;2023-01-31T10:32:04;1.60;99.90
41939;DHT22;23057;48.554;14.454;2023-01-31T10:34:46;1.40;99.90
41939;DHT22;23057;48.554;14.454;2023-01-31T10:37:28;1.30;99.90
41939;DHT22;23057;48.554;14.454;2023-01-31T10:40:18;1.40;99.90
41939;DHT22;23057;48.554;14.454;2023-01-31T10:45:52;1.80;99.90
41939;DHT22;23057;48.554;14.454;2023-01-31T10:48:22;1.50;99.90
41939;DHT22;23057;48.554;14.454;2023-01-31T10:51:02;1.40;99.90
41939;DHT22;23057;48.554;14.454;2023-01-31T10:53:57;1.20;99.90
41939;DHT22;23057;48.554;14.454;2023-01-31T10:56:50;1.20;99.90
41939;DHT22;23057;48.554;14.454;2023-01-31T10:59:40;1.20;99.90
41939;DHT22;23057;48.554;14.454;2023-01-31T11:02:25;1.20;99.90
41939;DHT22;23057;48.554;14.454;2023-01-31T11:04:59;1.30;99.90
41939;DHT22;23057;48.554;14.454;2023-01-31T11:07:30;1.20;99.90
41939;DHT22;23057;48.554;14.454;2023-01-31T11:10:02;1.10;99.90
41939;DHT22;23057;48.554;14.454;2023-01-31T11:13:00;1.10;99.90
41939;DHT22;23057;48.554;14.454;2023-01-31T11:15:38;1.10;99.90
41939;DHT22;23057;48.554;14.454;2023-01-31T11:21:23;1.30;99.90
41939;DHT22;23057;48.554;14.454;2023-01-31T11:24:02;1.40;99.90
41939;DHT22;23057;48.554;14.454;2023-01-31T11:26:37;1.30;99.90
41939;DHT22;23057;48.554;14.454;2023-01-31T11:29:20;1.30;99.90
41939;DHT22;23057;48.554;14.454;2023-01-31T11:32:03;1.30;99.90
41939;DHT22;23057;48.554;14.454;2023-01-31T11:34:53;1.30;99.90
41939;DHT22;23057;48.554;14.454;2023-01-31T11:37:36;1.30;99.90
41939;DHT22;23057;48.554;14.454;2023-01-31T11:40:31;1.20;99.90
41939;DHT22;23057;48.554;14.454;2023-01-31T11:43:09;1.30;99.90
41939;DHT22;23057;48.554;14.454;2023-01-31T11:45:56;1.30;79.60
41939;DHT22;23057;48.554;14.454;2023-01-31T11:51:19;1.30;69.70
41939;DHT22;23057;48.554;14.454;2023-01-31T11:54:02;1.30;79.30
41939;DHT22;23057;48.554;14.454;2023-01-31T11:56:34;1.30;99.90
41939;DHT22;23057;48.554;14.454;2023-01-31T11:59:08;1.20;99.90
41939;DHT22;23057;48.554;14.454;2023-01-31T12:01:50;1.20;99.90
41939;DHT22;23057;48.554;14.454;2023-01-31T12:04:28;1.00;99.90
41939;DHT22;23057;48.554;14.454;2023-01-31T12:07:05;1.10;99.90
41939;DHT22;23057;48.554;14.454;2023-01-31T12:13:02;1.10;99.90
41939;DHT22;23057;48.554;14.454;2023-01-31T12:15:59;1.10;99.90
41939;DHT22;23057;48.554;14.454;2023-01-31T12:18:47;1.10;99.90
41939;DHT22;23057;48.554;14.454;2023-01-31T12:25:19;1.30;99.90
41939;DHT22;23057;48.554;14.454;2023-01-31T12:34:23;1.20;99.90
41939;DHT22;23057;48.554;14.454;2023-01-31T12:38:03;1.10;99.90
41939;DHT22;23057;48.554;14.454;2023-01-31T12:43:20;1.20;99.90
41939;DHT22;23057;48.554;14.454;2023-01-31T12:55:23;1.30;99.90
41939;DHT22;23057;48.554;14.454;2023-01-31T12:58:54;1.30;69.30
41939;DHT22;23057;48.554;14.454;2023-01-31T13:04:42;1.30;15.70
41939;DHT22;23057;48.554;14.454;2023-01-31T13:07:32;1.20;1.00
41939;DHT22;23057;48.554;14.454;2023-01-31T13:10:36;1.20;67.50
41939;DHT22;23057;48.554;14.454;2023-01-31T13:13:25;1.30;45.10
41939;DHT22;23057;48.554;14.454;2023-01-31T13:16:12;1.20;76.00
41939;DHT22;23057;48.554;14.454;2023-01-31T13:19:22;1.20;29.40
41939;DHT22;23057;48.554;14.454;2023-01-31T13:22:04;1.20;25.90
41939;DHT22;23057;48.554;14.454;2023-01-31T13:24:48;1.20;25.10
41939;DHT22;23057;48.554;14.454;2023-01-31T13:28:03;1.20;1.00
41939;DHT22;23057;48.554;14.454;2023-01-31T13:30:45;1.10;1.00
41939;DHT22;23057;48.554;14.454;2023-01-31T13:33:28;1.20;1.00
41939;DHT22;23057;48.554;14.454;2023-01-31T13:36:17;1.20;1.00
41939;DHT22;23057;48.554;14.454;2023-01-31T13:39:05;1.20;1.00
41939;DHT22;23057;48.554;14.454;2023-01-31T13:41:46;1.20;1.00
41939;DHT22;23057;48.554;14.454;2023-01-31T13:44:17;1.30;1.00
41939;DHT22;23057;48.554;14.454;2023-01-31T13:46:51;1.20;1.00
41939;DHT22;23057;48.554;14.454;2023-01-31T13:49:33;1.20;1.00
41939;DHT22;23057;48.554;14.454;2023-01-31T13:52:11;1.20;1.00
41939;DHT22;23057;48.554;14.454;2023-01-31T13:55:00;1.30;1.00
41939;DHT22;23057;48.554;14.454;2023-01-31T13:58:06;1.30;99.90
41939;DHT22;23057;48.554;14.454;2023-01-31T14:00:49;1.30;99.90
41939;DHT22;23057;48.554;14.454;2023-01-31T14:03:42;1.30;99.90
41939;DHT22;23057;48.554;14.454;2023-01-31T14:09:29;1.20;99.90
41939;DHT22;23057;48.554;14.454;2023-01-31T14:12:28;1.10;99.90
41939;DHT22;23057;48.554;14.454;2023-01-31T14:15:44;1.10;99.90
41939;DHT22;23057;48.554;14.454;2023-01-31T14:18:37;1.10;99.90
41939;DHT22;23057;48.554;14.454;2023-01-31T14:24:02;1.00;1.00
41939;DHT22;23057;48.554;14.454;2023-01-31T14:29:15;1.00;1.00
41939;DHT22;23057;48.554;14.454;2023-01-31T14:31:51;1.00;1.00
41939;DHT22;23057;48.554;14.454;2023-01-31T14:34:26;0.90;1.00
41939;DHT22;23057;48.554;14.454;2023-01-31T14:37:07;0.90;1.00
41939;DHT22;23057;48.554;14.454;2023-01-31T14:40:14;0.80;21.00
41939;DHT22;23057;48.554;14.454;2023-01-31T14:57:47;1.00;9.40
41939;DHT22;23057;48.554;14.454;2023-01-31T15:00:24;1.00;1.00
41939;DHT22;23057;48.554;14.454;2023-01-31T15:03:02;1.00;1.00
41939;DHT22;23057;48.554;14.454;2023-01-31T15:06:13;1.00;1.00
41939;DHT22;23057;48.554;14.454;2023-01-31T15:11:54;1.00;1.00
41939;DHT22;23057;48.554;14.454;2023-01-31T15:14:37;0.90;1.00
41939;DHT22;23057;48.554;14.454;2023-01-31T15:17:18;0.90;4.40
41939;DHT22;23057;48.554;14.454;2023-01-31T15:19:59;0.90;1.00
41939;DHT22;23057;48.554;14.454;2023-01-31T15:22:51;0.90;38.40
41939;DHT22;23057;48.554;14.454;2023-01-31T15:25:31;0.90;48.50
41939;DHT22;23057;48.554;14.454;2023-01-31T15:28:14;0.80;99.90
41939;DHT22;23057;48.554;14.454;2023-01-31T15:30:49;0.80;99.90
41939;DHT22;23057;48.554;14.454;2023-01-31T15:36:18;0.90;79.40
41939;DHT22;23057;48.554;14.454;2023-01-31T15:38:57;0.90;95.60
41939;DHT22;23057;48.554;14.454;2023-01-31T15:41:45;0.90;72.40
41939;DHT22;23057;48.554;14.454;2023-01-31T15:44:20;0.90;99.10
41939;DHT22;23057;48.554;14.454;2023-01-31T15:46:55;0.90;54.10
41939;DHT22;23057;48.554;14.454;2023-01-31T15:49:33;0.90;90.70
41939;DHT22;23057;48.554;14.454;2023-01-31T15:52:17;0.80;99.90
41939;DHT22;23057;48.554;14.454;2023-01-31T15:54:56;0.80;90.30
41939;DHT22;23057;48.554;14.454;2023-01-31T15:57:37;0.90;23.50
41939;DHT22;23057;48.554;14.454;2023-01-31T16:00:27;0.90;23.80
41939;DHT22;23057;48.554;14.454;2023-01-31T16:03:02;0.90;1.00
41939;DHT22;23057;48.554;14.454;2023-01-31T16:05:37;0.90;45.60
41939;DHT22;23057;48.554;14.454;2023-01-31T16:08:24;0.90;57.30
41939;DHT22;23057;48.554;14.454;2023-01-31T16:11:06;0.90;10.10
41939;DHT22;23057;48.554;14.454;2023-01-31T16:13:39;0.90;44.10
41939;DHT22;23057;48.554;14.454;2023-01-31T16:16:12;0.90;1.00
41939;DHT22;23057;48.554;14.454;2023-01-31T16:18:46;0.90;1.00
41939;DHT22;23057;48.554;14.454;2023-01-31T16:21:32;0.90;1.00
41939;DHT22;23057;48.554;14.454;2023-01-31T16:29:39;0.90;9.50
41939;DHT22;23057;48.554;14.454;2023-01-31T16:32:14;0.90;27.50
41939;DHT22;23057;48.554;14.454;2023-01-31T16:35:03;0.80;38.50
41939;DHT22;23057;48.554;14.454;2023-01-31T16:37:38;0.80;80.90
41939;DHT22;23057;48.554;14.454;2023-01-31T16:46:00;0.70;99.90
41939;DHT22;23057;48.554;14.454;2023-01-31T16:48:38;0.70;99.90
41939;DHT22;23057;48.554;14.454;2023-01-31T16:51:44;0.70;99.90
41939;DHT22;23057;48.554;14.454;2023-01-31T16:54:17;0.70;99.90
41939;DHT22;23057;48.554;14.454;2023-01-31T17:04:55;0.70;99.90
41939;DHT22;23057;48.554;14.454;2023-01-31T17:07:34;0.60;99.90
41939;DHT22;23057;48.554;14.454;2023-01-31T17:10:07;0.60;99.90
41939;DHT22;23057;48.554;14.454;2023-01-31T17:12:38;0.60;99.90
41939;DHT22;23057;48.554;14.454;2023-01-31T17:15:14;0.60;99.90
41939;DHT22;23057;48.554;14.454;2023-01-31T17:17:49;0.60;99.90
41939;DHT22;23057;48.554;14.454;2023-01-31T17:20:19;0.60;99.90
41939;DHT22;23057;48.554;14.454;2023-01-31T17:22:51;0.60;99.90
41939;DHT22;23057;48.554;14.454;2023-01-31T17:25:23;0.60;99.90
41939;DHT22;23057;48.554;14.454;2023-01-31T17:27:59;0.60;99.90
41939;DHT22;23057;48.554;14.454;2023-01-31T17:30:30;0.60;99.90
41939;DHT22;23057;48.554;14.454;2023-01-31T17:33:03;0.60;99.90
41939;DHT22;23057;48.554;14.454;2023-01-31T17:35:35;0.60;99.90
41939;DHT22;23057;48.554;14.454;2023-01-31T17:38:08;0.50;99.90
41939;DHT22;23057;48.554;14.454;2023-01-31T17:40:39;0.60;99.90
41939;DHT22;23057;48.554;14.454;2023-01-31T17:43:15;0.60;99.90
41939;DHT22;23057;48.554;14.454;2023-01-31T17:45:51;0.60;99.90
41939;DHT22;23057;48.554;14.454;2023-01-31T17:48:22;0.60;99.90
41939;DHT22;23057;48.554;14.454;2023-01-31T17:50:53;0.60;99.90
41939;DHT22;23057;48.554;14.454;2023-01-31T17:53:23;0.60;99.90
41939;DHT22;23057;48.554;14.454;2023-01-31T17:55:54;0.60;99.90
41939;DHT22;23057;48.554;14.454;2023-01-31T17:58:25;0.60;99.90
41939;DHT22;23057;48.554;14.454;2023-01-31T18:00:56;0.60;99.90
41939;DHT22;23057;48.554;14.454;2023-01-31T18:03:27;0.70;99.90
41939;DHT22;23057;48.554;14.454;2023-01-31T18:06:01;0.70;99.90
41939;DHT22;23057;48.554;14.454;2023-01-31T18:08:36;0.70;99.90
41939;DHT22;23057;48.554;14.454;2023-01-31T18:11:09;0.60;99.90
41939;DHT22;23057;48.554;14.454;2023-01-31T18:13:45;0.70;99.90
41939;DHT22;23057;48.554;14.454;2023-01-31T18:16:18;0.70;99.90
41939;DHT22;23057;48.554;14.454;2023-01-31T18:18:52;0.70;99.90
41939;DHT22;23057;48.554;14.454;2023-01-31T18:21:22;0.70;99.90
41939;DHT22;23057;48.554;14.454;2023-01-31T18:23:54;0.70;99.90
41939;DHT22;23057;48.554;14.454;2023-01-31T18:26:26;0.70;99.90
41939;DHT22;23057;48.554;14.454;2023-01-31T18:28:57;0.70;99.90
41939;DHT22;23057;48.554;14.454;2023-01-31T18:31:28;0.70;99.90
41939;DHT22;23057;48.554;14.454;2023-01-31T18:33:59;0.70;99.90
41939;DHT22;23057;48.554;14.454;2023-01-31T18:36:30;0.70;99.90
41939;DHT22;23057;48.554;14.454;2023-01-31T18:39:01;0.70;99.90